Time;durP1;ratioP1;P1;durP2;ratioP2;P2;SDS_P1;SDS_P2;PMS_P1;PMS_P2;Temp;Humidity;BMP_temperature;BMP_pressure;BME280_temperature;BME280_humidity;BME280_pressure;Samples;Min_cycle;Max_cycle;Signal;HPM_P1;HPM_P2
2022/10/10 00:01:27;;;;;;;10.75;4.53;;;8.00;99.90;;;;;;5145565;27;20039;-74
2022/10/10 00:03:53;;;;;;;14.77;4.85;;;8.00;99.90;;;;;;5153323;27;20046;-75
2022/10/10 00:06:20;;;;;;;10.23;4.80;;;8.00;99.90;;;;;;5117146;27;20416;-81
2022/10/10 00:08:46;;;;;;;13.07;5.40;;;7.90;99.90;;;;;;5099117;27;20304;-78
2022/10/10 00:11:14;;;;;;;10.82;4.82;;;8.00;99.90;;;;;;5129098;27;20043;-75
2022/10/10 00:13:40;;;;;;;10.50;4.78;;;8.00;99.90;;;;;;5150971;27;20698;-76
2022/10/10 00:16:06;;;;;;;13.13;5.30;;;8.10;99.90;;;;;;5134110;27;20042;-76
2022/10/10 00:18:32;;;;;;;10.10;4.95;;;8.10;99.90;;;;;;5134070;27;20405;-75
2022/10/10 00:20:58;;;;;;;12.63;5.00;;;8.10;99.90;;;;;;5120547;28;20487;-76
2022/10/10 00:23:24;;;;;;;12.23;5.03;;;8.00;99.90;;;;;;5131716;28;20066;-76
2022/10/10 00:25:50;;;;;;;14.70;5.25;;;8.00;99.90;;;;;;5095522;28;20047;-76
2022/10/10 00:28:16;;;;;;;11.40;5.40;;;8.00;99.90;;;;;;5113913;28;20043;-76
2022/10/10 00:30:43;;;;;;;14.20;6.00;;;8.00;99.90;;;;;;5131474;27;20804;-76
2022/10/10 00:33:08;;;;;;;15.48;5.20;;;7.90;99.90;;;;;;5113681;28;20047;-76
2022/10/10 00:35:34;;;;;;;11.98;5.45;;;7.90;99.90;;;;;;5096033;28;20043;-75
2022/10/10 00:38:00;;;;;;;16.00;5.60;;;7.80;99.90;;;;;;5132422;28;20096;-76
2022/10/10 00:40:26;;;;;;;14.23;5.15;;;7.70;99.90;;;;;;5129716;27;20475;-76
2022/10/10 00:42:52;;;;;;;12.88;5.70;;;7.70;99.90;;;;;;5114762;27;20078;-76
2022/10/10 00:45:42;;;;;;;13.48;5.47;;;7.60;99.90;;;;;;5136829;27;20497;-74
2022/10/10 00:48:13;;;;;;;11.80;5.20;;;7.50;99.90;;;;;;5142643;27;20099;-75
2022/10/10 00:51:03;;;;;;;11.82;5.22;;;7.50;99.90;;;;;;5130625;28;20506;-75
2022/10/10 00:53:33;;;;;;;11.82;5.47;;;7.50;99.90;;;;;;5101164;28;20067;-75
2022/10/10 00:56:01;;;;;;;11.15;5.07;;;7.50;99.90;;;;;;5117738;27;20099;-80
2022/10/10 00:58:27;;;;;;;13.82;5.63;;;7.50;99.90;;;;;;5131348;28;20130;-76
2022/10/10 01:00:53;;;;;;;9.40;5.07;;;7.50;99.90;;;;;;5112737;28;20122;-77
2022/10/10 01:03:20;;;;;;;13.35;6.10;;;7.50;99.90;;;;;;5113443;28;20047;-75
2022/10/10 01:05:47;;;;;;;9.63;5.00;;;7.50;99.90;;;;;;5131115;27;20039;-78
2022/10/10 01:08:13;;;;;;;14.88;5.72;;;7.40;99.90;;;;;;5119511;27;20126;-75
2022/10/10 01:11:08;;;;;;;12.30;5.57;;;7.40;99.90;;;;;;5146752;27;20125;-76
2022/10/10 01:13:38;;;;;;;14.13;5.20;;;7.40;99.90;;;;;;5111570;27;20054;-74
2022/10/10 01:16:21;;;;;;;16.25;5.65;;;7.40;99.90;;;;;;5133443;27;20043;-75
2022/10/10 01:19:11;;;;;;;12.50;5.88;;;7.40;99.90;;;;;;5150746;27;20132;-74
2022/10/10 01:22:01;;;;;;;15.73;5.28;;;7.50;99.90;;;;;;5131924;27;20054;-74
2022/10/10 01:25:21;;;;;;;11.73;5.68;;;7.50;99.90;;;;;;5115863;27;20080;-75
2022/10/10 01:27:52;;;;;;;13.93;5.57;;;7.50;99.90;;;;;;5014577;28;20068;-75
2022/10/10 01:30:23;;;;;;;13.75;5.25;;;7.50;99.90;;;;;;5100075;27;20059;-75
2022/10/10 01:32:55;;;;;;;11.88;5.78;;;7.50;99.90;;;;;;5133932;27;20138;-75
2022/10/10 01:35:21;;;;;;;16.52;6.13;;;7.60;99.90;;;;;;5134427;27;20528;-76
2022/10/10 01:38:24;;;;;;;10.93;5.43;;;7.60;99.90;;;;;;5134703;27;20047;-74
2022/10/10 01:41:01;;;;;;;14.55;5.80;;;7.60;99.90;;;;;;5131835;27;20487;-77
2022/10/10 01:43:29;;;;;;;14.20;6.05;;;7.70;99.90;;;;;;5117002;27;20055;-76
2022/10/10 01:45:55;;;;;;;12.30;5.20;;;7.70;99.90;;;;;;5115531;27;20039;-75
2022/10/10 01:48:30;;;;;;;14.80;5.77;;;7.80;99.90;;;;;;5119103;27;20125;-74
2022/10/10 01:51:25;;;;;;;12.43;6.13;;;7.80;99.90;;;;;;5136310;27;20303;-77
2022/10/10 01:54:21;;;;;;;15.05;6.00;;;7.80;99.90;;;;;;5147951;27;20043;-75
2022/10/10 01:57:25;;;;;;;13.73;5.88;;;7.80;99.90;;;;;;5122398;27;20046;-74
2022/10/10 01:59:59;;;;;;;12.50;6.20;;;7.90;99.90;;;;;;5144357;27;20043;-75
2022/10/10 02:02:50;;;;;;;14.20;6.00;;;7.90;99.90;;;;;;5155196;27;20046;-75
2022/10/10 02:05:24;;;;;;;12.38;5.85;;;7.90;99.90;;;;;;5106605;27;20126;-75
2022/10/10 02:08:00;;;;;;;14.00;5.85;;;7.90;99.90;;;;;;5154857;27;20053;-74
2022/10/10 02:10:33;;;;;;;13.60;5.80;;;7.90;99.90;;;;;;5119103;27;20039;-74
2022/10/10 02:13:01;;;;;;;13.85;6.38;;;7.90;99.90;;;;;;5113529;27;20130;-76
2022/10/10 02:15:33;;;;;;;13.77;5.55;;;7.90;99.90;;;;;;5115834;27;20351;-76
2022/10/10 02:18:02;;;;;;;12.18;5.65;;;8.00;99.90;;;;;;5115742;27;20051;-76
2022/10/10 02:20:29;;;;;;;11.05;5.50;;;8.00;99.90;;;;;;5116203;27;20051;-74
2022/10/10 02:22:55;;;;;;;13.02;5.75;;;8.00;99.90;;;;;;5134057;27;20047;-74
2022/10/10 02:25:27;;;;;;;14.23;5.70;;;7.90;99.90;;;;;;5114957;27;20444;-74
2022/10/10 02:28:24;;;;;;;14.02;5.55;;;8.00;99.90;;;;;;5133986;27;20836;-75
2022/10/10 02:30:54;;;;;;;15.35;5.68;;;7.90;99.90;;;;;;5115597;27;20036;-77
2022/10/10 02:33:27;;;;;;;13.25;5.70;;;7.90;99.90;;;;;;5134472;27;20055;-77
2022/10/10 02:35:53;;;;;;;13.45;5.82;;;7.90;99.90;;;;;;5115272;27;20051;-76
2022/10/10 02:38:19;;;;;;;13.90;5.95;;;7.90;99.90;;;;;;5134064;27;20058;-75
2022/10/10 02:40:47;;;;;;;11.63;5.93;;;8.00;99.90;;;;;;5096843;27;20428;-76
2022/10/10 02:43:13;;;;;;;;;;;7.90;99.90;;;;;;5116424;27;20038;-76
2022/10/10 02:45:40;;;;;;;11.07;5.85;;;7.90;99.90;;;;;;5114817;27;19989;-76
2022/10/10 02:48:06;;;;;;;15.30;5.90;;;7.90;99.90;;;;;;5115662;27;20179;-75
2022/10/10 02:50:32;;;;;;;17.63;5.88;;;7.90;99.90;;;;;;5154055;27;20046;-77
2022/10/10 02:52:59;;;;;;;12.18;5.88;;;7.90;99.90;;;;;;5134981;27;20126;-75
2022/10/10 02:55:25;;;;;;;11.70;5.57;;;7.90;99.90;;;;;;5130241;27;20043;-75
2022/10/10 02:57:51;;;;;;;13.80;6.00;;;7.90;99.90;;;;;;5114627;27;20126;-74
2022/10/10 03:00:17;;;;;;;15.00;6.00;;;7.90;99.90;;;;;;5133091;27;20130;-74
2022/10/10 03:02:45;;;;;;;13.00;5.97;;;7.90;99.90;;;;;;5132825;27;20039;-76
2022/10/10 03:05:11;;;;;;;15.93;5.78;;;7.90;99.90;;;;;;5135489;27;20051;-74
2022/10/10 03:07:37;;;;;;;15.90;6.32;;;7.90;99.90;;;;;;5133318;27;20047;-75
2022/10/10 03:10:06;;;;;;;13.93;6.25;;;7.90;99.90;;;;;;5113242;27;20045;-75
2022/10/10 03:12:33;;;;;;;17.33;6.70;;;7.90;99.90;;;;;;5115360;27;20459;-76
2022/10/10 03:14:59;;;;;;;15.93;6.07;;;7.90;99.90;;;;;;5168131;27;20723;-75
2022/10/10 03:17:24;;;;;;;17.73;7.43;;;7.90;99.90;;;;;;5156131;27;20034;-76
2022/10/10 03:19:50;;;;;;;14.35;6.18;;;7.90;99.90;;;;;;5154999;27;20046;-76
2022/10/10 03:22:16;;;;;;;13.30;6.28;;;7.70;99.90;;;;;;5135389;27;20044;-76
2022/10/10 03:24:41;;;;;;;16.48;6.60;;;7.80;99.90;;;;;;5113838;27;20083;-82
2022/10/10 03:27:07;;;;;;;15.25;6.10;;;7.90;99.90;;;;;;5135194;27;20305;-76
2022/10/10 03:29:33;;;;;;;14.95;6.13;;;7.90;99.90;;;;;;5146655;27;20042;-75
2022/10/10 03:31:58;;;;;;;14.73;6.45;;;7.90;99.90;;;;;;5113822;27;20039;-75
2022/10/10 03:34:24;;;;;;;14.07;6.20;;;7.90;99.90;;;;;;5132564;27;20050;-75
2022/10/10 03:36:50;;;;;;;15.15;6.55;;;7.90;99.90;;;;;;5122762;27;20066;-74
2022/10/10 03:39:16;;;;;;;13.38;6.60;;;7.90;99.90;;;;;;5132423;27;20073;-74
2022/10/10 03:41:41;;;;;;;12.70;6.13;;;7.90;99.90;;;;;;5131767;27;20550;-81
2022/10/10 03:44:07;;;;;;;17.58;6.40;;;7.90;99.90;;;;;;5143628;27;20050;-76
2022/10/10 03:46:33;;;;;;;16.88;6.63;;;7.90;99.90;;;;;;5153477;27;20121;-75
2022/10/10 03:48:58;;;;;;;15.57;5.88;;;7.90;99.90;;;;;;5123564;27;20388;-76
2022/10/10 03:51:24;;;;;;;16.95;6.80;;;7.90;99.90;;;;;;5141944;27;20046;-74
2022/10/10 03:53:50;;;;;;;16.90;5.93;;;7.90;99.90;;;;;;5134476;27;20042;-76
2022/10/10 03:56:15;;;;;;;15.32;6.45;;;8.00;99.90;;;;;;5132522;27;20493;-75
2022/10/10 03:58:41;;;;;;;16.73;6.43;;;7.90;99.90;;;;;;5135496;27;20160;-74
2022/10/10 04:01:07;;;;;;;16.60;7.07;;;7.90;99.90;;;;;;5125917;27;20038;-74
2022/10/10 04:03:33;;;;;;;15.38;6.78;;;7.90;99.90;;;;;;5114684;27;20050;-75
2022/10/10 04:05:59;;;;;;;15.90;7.80;;;7.90;99.90;;;;;;5096272;28;20103;-75
2022/10/10 04:08:25;;;;;;;17.65;6.40;;;7.80;99.90;;;;;;5132457;27;20043;-76
2022/10/10 04:10:52;;;;;;;18.48;7.13;;;7.80;99.90;;;;;;5117753;27;20078;-75
2022/10/10 04:13:19;;;;;;;12.63;6.78;;;7.90;99.90;;;;;;5114054;27;20075;-75
2022/10/10 04:15:49;;;;;;;17.48;7.15;;;7.80;99.90;;;;;;5132092;27;20416;-79
2022/10/10 04:18:15;;;;;;;17.67;6.63;;;7.80;99.90;;;;;;5116126;27;20042;-75
2022/10/10 04:20:41;;;;;;;18.95;7.30;;;7.80;99.90;;;;;;5096807;28;20047;-75
2022/10/10 04:23:07;;;;;;;17.17;6.30;;;7.80;99.90;;;;;;5113032;28;20131;-76
2022/10/10 04:25:33;;;;;;;18.30;7.57;;;7.70;99.90;;;;;;5130795;27;20047;-75
2022/10/10 04:27:58;;;;;;;19.23;7.53;;;7.70;99.90;;;;;;5131657;28;20046;-75
2022/10/10 04:30:24;;;;;;;15.15;7.07;;;7.60;99.90;;;;;;5130563;28;20043;-75
2022/10/10 04:32:50;;;;;;;14.13;6.90;;;7.60;99.90;;;;;;5113491;28;20126;-80
2022/10/10 04:35:15;;;;;;;16.33;7.72;;;7.60;99.90;;;;;;5131772;27;20043;-74
2022/10/10 04:37:41;;;;;;;15.02;6.97;;;7.60;99.90;;;;;;5132133;27;20039;-75
2022/10/10 04:40:08;;;;;;;16.27;7.50;;;7.50;99.90;;;;;;5129724;27;20423;-78
2022/10/10 04:42:33;;;;;;;14.75;7.18;;;7.50;99.90;;;;;;5131979;28;20035;-76
2022/10/10 04:44:59;;;;;;;17.98;7.60;;;7.50;99.90;;;;;;5131444;27;20551;-76
2022/10/10 04:47:25;;;;;;;16.58;7.40;;;7.40;99.90;;;;;;5132211;27;20039;-76
2022/10/10 04:49:51;;;;;;;14.82;7.38;;;7.40;99.90;;;;;;5113842;28;20431;-82
2022/10/10 04:52:16;;;;;;;20.15;7.80;;;7.40;99.90;;;;;;5113275;27;20051;-75
2022/10/10 04:54:42;;;;;;;17.45;7.20;;;7.30;99.90;;;;;;5136462;27;20038;-74
2022/10/10 04:57:08;;;;;;;15.60;7.35;;;7.50;99.90;;;;;;5137486;27;20046;-74
2022/10/10 04:59:33;;;;;;;17.52;7.53;;;7.30;99.90;;;;;;5156153;27;20047;-75
2022/10/10 05:01:59;;;;;;;19.15;7.07;;;7.40;99.90;;;;;;5153556;27;20120;-76
2022/10/10 05:04:25;;;;;;;15.68;7.53;;;7.40;99.90;;;;;;5103065;27;20493;-75
2022/10/10 05:06:51;;;;;;;19.38;7.93;;;7.40;99.90;;;;;;5138017;27;20456;-74
2022/10/10 05:09:16;;;;;;;22.95;7.43;;;7.40;99.90;;;;;;5103803;27;20123;-76
2022/10/10 05:11:42;;;;;;;19.70;7.88;;;7.40;99.90;;;;;;5155884;27;20055;-74
2022/10/10 05:14:08;;;;;;;21.20;8.07;;;7.40;99.90;;;;;;5123697;27;20486;-75
2022/10/10 05:16:34;;;;;;;19.13;7.50;;;7.30;99.90;;;;;;5117087;27;20043;-75
2022/10/10 05:19:00;;;;;;;16.13;7.78;;;7.40;99.90;;;;;;5116546;27;20505;-79
2022/10/10 05:21:27;;;;;;;18.97;8.33;;;7.40;99.90;;;;;;5103216;27;20126;-77
2022/10/10 05:23:53;;;;;;;19.05;7.70;;;7.40;99.90;;;;;;5114446;27;20047;-74
2022/10/10 05:26:19;;;;;;;16.50;7.45;;;7.40;99.90;;;;;;5127109;27;20426;-75
2022/10/10 05:28:45;;;;;;;17.90;8.13;;;7.30;99.90;;;;;;5144839;27;20080;-73
2022/10/10 05:31:11;;;;;;;18.02;6.97;;;7.30;99.90;;;;;;5115452;27;20115;-74
2022/10/10 05:33:37;;;;;;;15.38;6.88;;;7.30;99.90;;;;;;5117018;27;20058;-78
2022/10/10 05:36:09;;;;;;;17.42;7.18;;;7.30;99.90;;;;;;5134216;27;20051;-74
2022/10/10 05:38:36;;;;;;;16.20;7.97;;;7.30;99.90;;;;;;5118193;27;20047;-74
2022/10/10 05:41:02;;;;;;;17.30;7.22;;;7.30;99.90;;;;;;5145186;27;20123;-74
2022/10/10 05:43:28;;;;;;;15.73;7.47;;;7.40;99.90;;;;;;5137349;27;20203;-75
2022/10/10 05:45:54;;;;;;;17.27;7.07;;;7.30;99.90;;;;;;5136942;27;20047;-75
2022/10/10 05:48:20;;;;;;;17.42;8.55;;;7.40;99.90;;;;;;5148464;27;20375;-75
2022/10/10 05:50:48;;;;;;;18.75;7.63;;;7.30;99.90;;;;;;5134367;27;20086;-78
2022/10/10 05:53:15;;;;;;;17.65;7.60;;;7.40;99.90;;;;;;5115579;27;20055;-76
2022/10/10 05:55:40;;;;;;;22.58;7.93;;;7.40;99.90;;;;;;5114896;27;20054;-76
2022/10/10 05:58:06;;;;;;;23.88;8.63;;;7.40;99.90;;;;;;5121647;27;20042;-75
2022/10/10 06:00:33;;;;;;;20.33;8.13;;;7.40;99.90;;;;;;5151201;27;20539;-75
2022/10/10 06:02:59;;;;;;;20.90;7.85;;;7.40;99.90;;;;;;5134765;27;20489;-82
2022/10/10 06:05:25;;;;;;;19.33;7.85;;;7.40;99.90;;;;;;5150170;27;20118;-76
2022/10/10 06:07:51;;;;;;;19.23;7.90;;;7.40;99.90;;;;;;5116011;27;20425;-76
2022/10/10 06:10:17;;;;;;;18.20;7.70;;;7.30;99.90;;;;;;5123854;27;20060;-75
2022/10/10 06:12:43;;;;;;;16.73;7.72;;;7.40;99.90;;;;;;5115735;27;20127;-74
2022/10/10 06:15:09;;;;;;;21.50;8.27;;;7.30;99.90;;;;;;5136421;27;20046;-74
2022/10/10 06:17:35;;;;;;;21.17;7.82;;;7.30;99.90;;;;;;5166481;27;20488;-74
2022/10/10 06:20:01;;;;;;;20.50;8.18;;;7.30;99.90;;;;;;5132038;27;20047;-81
2022/10/10 06:22:26;;;;;;;15.68;7.72;;;7.30;99.90;;;;;;5121840;27;20043;-74
2022/10/10 06:24:52;;;;;;;24.25;7.88;;;7.30;99.90;;;;;;5147809;27;20046;-76
2022/10/10 06:27:18;;;;;;;16.75;7.40;;;7.30;99.90;;;;;;5117648;27;20077;-74
2022/10/10 06:29:44;;;;;;;19.23;7.97;;;7.50;99.90;;;;;;5135628;27;20118;-75
2022/10/10 06:32:09;;;;;;;21.15;8.43;;;7.30;99.90;;;;;;5149924;27;20035;-75
2022/10/10 06:34:35;;;;;;;22.70;7.65;;;7.40;99.90;;;;;;5129103;27;20070;-74
2022/10/10 06:37:01;;;;;;;18.58;8.25;;;7.40;99.90;;;;;;5094974;27;20072;-82
2022/10/10 06:39:27;;;;;;;19.15;8.05;;;7.40;99.90;;;;;;5153504;27;20459;-75
2022/10/10 06:41:52;;;;;;;21.95;8.68;;;7.40;99.90;;;;;;5134014;27;20039;-77
2022/10/10 06:44:18;;;;;;;18.58;7.25;;;7.40;99.90;;;;;;5115439;27;20082;-75
2022/10/10 06:46:44;;;;;;;21.33;8.75;;;7.50;99.90;;;;;;5115489;27;20126;-78
2022/10/10 06:49:10;;;;;;;16.90;8.60;;;7.50;99.90;;;;;;5129696;27;20046;-77
2022/10/10 06:51:37;;;;;;;18.55;8.25;;;7.70;99.90;;;;;;5135964;27;20038;-75
2022/10/10 06:54:03;;;;;;;18.83;8.65;;;7.70;99.90;;;;;;5142061;27;20035;-82
2022/10/10 06:56:29;;;;;;;21.30;7.85;;;7.70;99.90;;;;;;5118692;27;20046;-75
2022/10/10 06:58:55;;;;;;;18.70;8.27;;;7.70;99.90;;;;;;5136055;27;20254;-75
2022/10/10 07:01:22;;;;;;;16.65;7.20;;;7.80;99.90;;;;;;5152546;27;20035;-78
2022/10/10 07:03:48;;;;;;;23.83;7.75;;;7.90;99.90;;;;;;5135711;27;20401;-75
2022/10/10 07:06:15;;;;;;;21.80;7.93;;;8.00;99.90;;;;;;5117659;27;20054;-75
2022/10/10 07:08:41;;;;;;;19.25;7.95;;;8.10;99.90;;;;;;5135474;27;20437;-75
2022/10/10 07:11:09;;;;;;;17.60;7.80;;;8.10;99.90;;;;;;5131504;27;20082;-79
2022/10/10 07:13:36;;;;;;;21.90;7.65;;;8.20;99.90;;;;;;5115125;27;20047;-74
2022/10/10 07:16:03;;;;;;;19.52;8.05;;;8.40;99.90;;;;;;5132105;27;20144;-76
2022/10/10 07:18:29;;;;;;;18.65;8.45;;;8.40;99.90;;;;;;5133309;27;20549;-75
2022/10/10 07:20:59;;;;;;;23.75;7.82;;;8.50;99.90;;;;;;5106686;27;20133;-77
2022/10/10 07:23:26;;;;;;;17.50;7.93;;;8.50;99.90;;;;;;5132781;27;20202;-75
2022/10/10 07:25:58;;;;;;;18.52;7.90;;;8.60;99.90;;;;;;5096468;27;20057;-76
2022/10/10 07:28:24;;;;;;;17.70;8.18;;;8.60;99.90;;;;;;5115448;27;20228;-75
2022/10/10 07:30:50;;;;;;;19.52;8.15;;;8.70;99.90;;;;;;5153528;27;20042;-75
2022/10/10 07:33:15;;;;;;;24.02;8.43;;;8.70;99.90;;;;;;5153479;27;20478;-75
2022/10/10 07:35:42;;;;;;;18.13;7.75;;;8.70;99.90;;;;;;5149331;27;20047;-76
2022/10/10 07:38:10;;;;;;;22.85;8.77;;;8.60;99.90;;;;;;5135310;27;20067;-80
2022/10/10 07:40:40;;;;;;;18.33;8.10;;;8.70;99.90;;;;;;5122892;27;20039;-75
2022/10/10 07:43:05;;;;;;;18.30;8.02;;;8.70;99.90;;;;;;5132528;27;20043;-82
2022/10/10 07:45:35;;;;;;;21.52;8.63;;;8.70;99.90;;;;;;5132230;27;20047;-78
2022/10/10 07:48:01;;;;;;;19.27;8.00;;;8.80;99.90;;;;;;5114626;27;20043;-75
2022/10/10 07:50:27;;;;;;;21.33;9.13;;;8.90;99.90;;;;;;5096496;27;20662;-75
2022/10/10 07:52:52;;;;;;;18.00;8.38;;;9.00;99.90;;;;;;5146447;27;20038;-74
2022/10/10 07:55:18;;;;;;;18.35;8.68;;;8.90;99.90;;;;;;5121831;27;20126;-75
2022/10/10 07:57:44;;;;;;;16.67;7.97;;;9.10;99.90;;;;;;5114410;27;20054;-74
2022/10/10 08:00:10;;;;;;;22.77;8.82;;;9.00;99.90;;;;;;5132504;27;20190;-81
2022/10/10 08:02:36;;;;;;;23.10;8.83;;;9.10;99.90;;;;;;5132770;27;20038;-74
2022/10/10 08:05:02;;;;;;;21.65;8.70;;;9.20;99.90;;;;;;5132621;27;20121;-78
2022/10/10 08:07:27;;;;;;;19.02;8.75;;;9.20;99.90;;;;;;5096866;28;20066;-75
2022/10/10 08:09:53;;;;;;;17.58;8.15;;;9.30;99.90;;;;;;5133525;27;20043;-74
2022/10/10 08:12:19;;;;;;;17.85;8.50;;;9.30;99.90;;;;;;5113543;27;20059;-75
2022/10/10 08:14:45;;;;;;;18.70;7.85;;;9.50;99.90;;;;;;5132755;27;20440;-74
2022/10/10 08:17:10;;;;;;;19.80;8.38;;;9.60;99.90;;;;;;5097279;28;20073;-79
2022/10/10 08:19:36;;;;;;;17.80;8.98;;;9.70;99.90;;;;;;5113960;28;20122;-74
2022/10/10 08:22:02;;;;;;;17.60;8.35;;;9.80;99.90;;;;;;5152606;27;20394;-75
2022/10/10 08:24:28;;;;;;;19.05;8.10;;;9.90;99.90;;;;;;5116428;27;20046;-74
2022/10/10 08:26:53;;;;;;;18.13;7.97;;;10.00;99.90;;;;;;5129164;27;20501;-75
2022/10/10 08:29:19;;;;;;;15.18;7.97;;;10.10;99.90;;;;;;5156238;27;20066;-76
2022/10/10 08:31:45;;;;;;;18.15;9.25;;;10.10;99.90;;;;;;5156384;27;20038;-77
2022/10/10 08:34:11;;;;;;;16.38;7.97;;;10.30;99.90;;;;;;5141229;27;20057;-78
2022/10/10 08:36:37;;;;;;;19.42;8.60;;;10.40;99.90;;;;;;5118548;27;20051;-74
2022/10/10 08:39:03;;;;;;;19.55;8.63;;;10.60;99.90;;;;;;5118116;27;20047;-79
2022/10/10 08:41:38;;;;;;;18.65;7.90;;;10.80;99.90;;;;;;5118014;27;20046;-75
2022/10/10 08:44:32;;;;;;;16.42;7.75;;;10.90;99.90;;;;;;5136977;27;20402;-76
2022/10/10 08:47:11;;;;;;;16.88;7.47;;;11.10;99.90;;;;;;5136790;27;20047;-74
2022/10/10 08:49:51;;;;;;;21.58;8.73;;;11.20;99.90;;;;;;5136142;27;20096;-75
2022/10/10 08:52:40;;;;;;;17.98;8.23;;;11.30;99.90;;;;;;5135880;27;20035;-76
2022/10/10 08:55:17;;;;;;;16.73;8.35;;;11.30;99.90;;;;;;5116954;27;20035;-75
2022/10/10 08:57:46;;;;;;;21.10;9.05;;;11.50;99.90;;;;;;5136832;27;20082;-75
2022/10/10 09:00:16;;;;;;;25.30;8.77;;;11.60;99.90;;;;;;5137829;27;20054;-77
2022/10/10 09:02:52;;;;;;;18.63;8.77;;;11.60;99.90;;;;;;5157243;27;20478;-77
2022/10/10 09:05:31;;;;;;;17.50;8.18;;;11.70;99.90;;;;;;5131535;27;20047;-77
2022/10/10 09:08:07;;;;;;;18.08;8.38;;;11.80;99.90;;;;;;5143101;27;20130;-76
2022/10/10 09:10:54;;;;;;;16.48;7.88;;;11.80;99.90;;;;;;5135967;27;20053;-76
2022/10/10 09:13:37;;;;;;;18.23;8.13;;;11.90;99.90;;;;;;5154532;27;20133;-75
2022/10/10 09:16:22;;;;;;;21.13;8.63;;;12.10;99.90;;;;;;5138136;27;20061;-73
2022/10/10 09:19:28;;;;;;;19.73;8.52;;;12.20;99.90;;;;;;5134190;27;20085;-74
2022/10/10 09:21:59;;;;;;;20.85;8.00;;;12.40;99.90;;;;;;5082262;27;20365;-75
2022/10/10 09:24:40;;;;;;;16.45;7.90;;;12.60;99.90;;;;;;5137716;27;20131;-75
2022/10/10 09:27:13;;;;;;;20.27;7.88;;;12.80;99.90;;;;;;5156657;27;20043;-75
2022/10/10 09:29:45;;;;;;;17.85;7.65;;;12.90;99.90;;;;;;5136492;27;20074;-75
2022/10/10 09:32:19;;;;;;;19.65;8.02;;;13.00;99.90;;;;;;5136686;27;20458;-75
2022/10/10 09:34:56;;;;;;;23.45;7.72;;;13.10;99.90;;;;;;5136521;27;20043;-77
2022/10/10 09:37:31;;;;;;;13.80;7.13;;;13.20;99.90;;;;;;5101549;27;20054;-74
2022/10/10 09:40:12;;;;;;;18.08;8.07;;;13.40;99.90;;;;;;5116520;27;20082;-73
2022/10/10 09:42:39;;;;;;;19.15;7.80;;;13.50;99.90;;;;;;5116974;27;20051;-74
2022/10/10 09:45:17;;;;;;;16.42;7.38;;;13.70;99.90;;;;;;5132243;27;20076;-74
2022/10/10 09:47:42;;;;;;;19.02;7.90;;;13.90;99.90;;;;;;5156260;27;20054;-74
2022/10/10 09:50:15;;;;;;;15.27;7.35;;;14.10;99.90;;;;;;5143797;27;20043;-74
2022/10/10 09:52:42;;;;;;;13.82;7.68;;;14.20;99.90;;;;;;5130154;27;20034;-76
2022/10/10 09:55:35;;;;;;;14.45;7.63;;;14.20;99.90;;;;;;5154059;27;20492;-76
2022/10/10 09:58:40;;;;;;;17.25;7.43;;;14.30;99.90;;;;;;5150503;27;20099;-74
2022/10/10 10:01:21;;;;;;;16.15;7.45;;;14.40;99.90;;;;;;5155804;27;20038;-73
2022/10/10 10:04:09;;;;;;;17.10;7.65;;;14.50;99.90;;;;;;5137525;27;20039;-75
2022/10/10 10:06:35;;;;;;;17.52;7.10;;;14.50;99.90;;;;;;5135258;27;20075;-75
2022/10/10 10:09:05;;;;;;;17.48;7.70;;;14.60;99.90;;;;;;5135550;27;20047;-81
2022/10/10 10:11:38;;;;;;;16.85;7.10;;;14.60;99.90;;;;;;5134902;27;20050;-74
2022/10/10 10:14:04;;;;;;;17.27;7.50;;;14.60;99.90;;;;;;5135969;27;20146;-79
2022/10/10 10:16:36;;;;;;;14.45;7.25;;;14.60;99.90;;;;;;5135297;27;20128;-74
2022/10/10 10:19:03;;;;;;;15.30;7.28;;;14.60;99.90;;;;;;5117490;27;20081;-75
2022/10/10 10:21:29;;;;;;;15.27;7.25;;;14.60;99.90;;;;;;5109056;27;20058;-75
2022/10/10 10:24:20;;;;;;;17.55;6.78;;;14.50;99.90;;;;;;5125961;27;20036;-78
2022/10/10 10:26:47;;;;;;;17.35;7.55;;;14.50;99.90;;;;;;5138405;27;20423;-75
2022/10/10 10:29:33;;;;;;;17.20;7.15;;;14.50;99.90;;;;;;5118075;27;20119;-74
2022/10/10 10:32:27;;;;;;;15.57;6.93;;;14.50;99.90;;;;;;5137183;27;20047;-73
2022/10/10 10:35:09;;;;;;;18.98;7.18;;;14.50;99.90;;;;;;5156307;27;20043;-74
2022/10/10 10:38:02;;;;;;;15.32;7.05;;;14.50;99.90;;;;;;5121430;27;20051;-75
2022/10/10 10:40:44;;;;;;;14.05;6.20;;;14.60;99.90;;;;;;5143711;27;20156;-79
2022/10/10 10:43:24;;;;;;;14.63;7.10;;;14.60;99.90;;;;;;5128710;27;20436;-75
2022/10/10 10:46:07;;;;;;;16.77;6.63;;;14.70;99.90;;;;;;5136400;27;20137;-76
2022/10/10 10:49:02;;;;;;;13.15;6.78;;;14.70;99.90;;;;;;5136625;27;20500;-74
2022/10/10 10:51:50;;;;;;;14.80;7.10;;;14.90;99.90;;;;;;5137347;27;20051;-79
2022/10/10 10:54:18;;;;;;;17.13;6.90;;;15.00;99.90;;;;;;5154479;27;20046;-76
2022/10/10 10:57:08;;;;;;;14.80;6.53;;;15.10;99.90;;;;;;5119869;27;20047;-75
2022/10/10 10:59:58;;;;;;;16.20;6.90;;;15.20;99.90;;;;;;5141908;27;20068;-77
2022/10/10 11:02:49;;;;;;;16.30;6.10;;;15.30;99.90;;;;;;5148118;27;20035;-76
2022/10/10 11:05:36;;;;;;;18.33;6.03;;;15.40;99.90;;;;;;5160645;27;20051;-77
2022/10/10 11:08:11;;;;;;;12.68;6.22;;;15.50;99.90;;;;;;5163863;27;20042;-76
2022/10/10 11:10:43;;;;;;;15.05;6.28;;;15.70;99.90;;;;;;5161289;27;20047;-75
2022/10/10 11:13:34;;;;;;;16.25;6.40;;;15.70;99.90;;;;;;5141982;27;20541;-74
2022/10/10 11:16:21;;;;;;;16.73;6.82;;;15.80;99.90;;;;;;5140111;27;20051;-76
2022/10/10 11:19:02;;;;;;;15.15;6.25;;;15.80;99.90;;;;;;5118816;27;20039;-76
2022/10/10 11:21:31;;;;;;;15.80;6.82;;;15.90;99.90;;;;;;5119578;27;20051;-75
2022/10/10 11:24:05;;;;;;;19.63;7.30;;;16.00;99.90;;;;;;5135446;27;20110;-75
2022/10/10 11:26:41;;;;;;;16.98;6.50;;;16.00;99.90;;;;;;5155211;27;20046;-75
2022/10/10 11:29:31;;;;;;;15.88;6.50;;;16.00;99.90;;;;;;5141509;27;20046;-76
2022/10/10 11:32:01;;;;;;;15.68;5.70;;;16.20;99.90;;;;;;5141818;27;20050;-76
2022/10/10 11:34:31;;;;;;;14.85;6.60;;;16.40;99.90;;;;;;5153385;27;20055;-75
2022/10/10 11:37:04;;;;;;;13.02;5.50;;;16.60;99.90;;;;;;5142318;27;20092;-75
2022/10/10 11:39:38;;;;;;;12.57;6.53;;;16.70;99.90;;;;;;5160219;27;20043;-74
2022/10/10 11:42:31;;;;;;;14.07;6.10;;;16.60;99.90;;;;;;5160358;27;20096;-75
2022/10/10 11:45:14;;;;;;;14.20;6.28;;;16.50;99.90;;;;;;5140731;27;20055;-75
2022/10/10 11:48:01;;;;;;;14.85;5.82;;;16.40;99.90;;;;;;5159668;27;20058;-73
2022/10/10 11:50:40;;;;;;;13.50;5.72;;;16.30;99.90;;;;;;5155896;27;20047;-75
2022/10/10 11:53:37;;;;;;;13.52;6.20;;;16.10;99.90;;;;;;5127231;27;20057;-73
2022/10/10 11:56:26;;;;;;;15.80;6.00;;;15.90;99.90;;;;;;5142314;27;20043;-75
2022/10/10 11:58:57;;;;;;;15.57;6.07;;;15.70;99.90;;;;;;5139194;27;20144;-75
2022/10/10 12:01:35;;;;;;;19.98;6.55;;;15.70;99.90;;;;;;5131648;27;20042;-75
2022/10/10 12:04:01;;;;;;;14.05;6.03;;;15.60;99.90;;;;;;5162308;27;20042;-82
2022/10/10 12:06:45;;;;;;;14.52;6.20;;;15.60;99.90;;;;;;5162043;27;20043;-75
2022/10/10 12:09:23;;;;;;;17.90;6.47;;;15.50;99.90;;;;;;5124490;28;20051;-73
2022/10/10 12:11:58;;;;;;;13.98;5.90;;;15.50;99.90;;;;;;5141216;27;20047;-75
2022/10/10 12:14:30;;;;;;;10.63;5.25;;;15.50;99.90;;;;;;5140134;27;20069;-74
2022/10/10 12:16:56;;;;;;;17.67;6.05;;;15.50;99.90;;;;;;5139835;27;20101;-74
2022/10/10 12:19:25;;;;;;;14.80;6.20;;;15.50;99.90;;;;;;5139539;28;20114;-74
2022/10/10 12:22:07;;;;;;;15.55;5.93;;;15.60;99.90;;;;;;5142959;27;20133;-74
2022/10/10 12:24:35;;;;;;;14.07;6.03;;;15.60;99.90;;;;;;5129728;27;20039;-74
2022/10/10 12:27:00;;;;;;;15.15;6.10;;;15.60;99.90;;;;;;5138698;28;20413;-72
2022/10/10 12:30:08;;;;;;;17.15;6.28;;;15.60;99.90;;;;;;5138704;28;20050;-75
2022/10/10 12:32:46;;;;;;;19.55;6.10;;;15.60;99.90;;;;;;5138273;28;20035;-75
2022/10/10 12:35:48;;;;;;;15.95;6.28;;;15.60;99.90;;;;;;5122946;28;20043;-75
2022/10/10 12:38:20;;;;;;;16.40;6.82;;;15.50;99.90;;;;;;5007641;28;20216;-76
2022/10/10 12:41:04;;;;;;;20.55;7.38;;;15.50;99.90;;;;;;5124704;27;20079;-75
2022/10/10 12:43:47;;;;;;;19.35;6.93;;;15.50;99.90;;;;;;5160168;27;20420;-75
2022/10/10 12:46:28;;;;;;;17.33;6.70;;;15.50;99.90;;;;;;5159250;27;20474;-74
2022/10/10 12:49:17;;;;;;;23.50;7.38;;;15.40;99.90;;;;;;5140762;27;20046;-78
2022/10/10 12:51:51;;;;;;;18.73;7.50;;;15.30;99.90;;;;;;5159630;27;20038;-76
2022/10/10 12:54:28;;;;;;;16.73;7.18;;;15.30;99.90;;;;;;5136188;27;20065;-75
2022/10/10 12:57:26;;;;;;;15.27;8.05;;;15.20;99.90;;;;;;5139772;27;20058;-75
2022/10/10 12:59:51;;;;;;;16.90;8.50;;;15.20;99.90;;;;;;5140663;27;20047;-77
2022/10/10 13:02:22;;;;;;;19.50;8.05;;;15.10;99.90;;;;;;5140044;28;20516;-77
2022/10/10 13:04:52;;;;;;;22.30;8.57;;;15.10;99.90;;;;;;5137596;28;20049;-76
2022/10/10 13:07:20;;;;;;;21.23;8.38;;;15.10;99.90;;;;;;5140608;27;20078;-75